createdAt,value
2022-12-09T00:03:09.339Z,100546.88
2022-12-09T00:13:12.413Z,100542.31
2022-12-09T00:23:16.840Z,100544.22
2022-12-09T00:33:19.769Z,100535.78
2022-12-09T00:43:24.236Z,100537.75
2022-12-09T00:53:27.590Z,100535.03
2022-12-09T01:03:32.263Z,100535.84
2022-12-09T01:13:35.572Z,100537.00
2022-12-09T01:23:40.150Z,100540.47
2022-12-09T01:33:44.091Z,100543.53
2022-12-09T01:44:10.081Z,100548.91
2022-12-09T01:54:13.344Z,100546.63
2022-12-09T02:04:18.082Z,100540.09
2022-12-09T02:14:25.295Z,100546.63
2022-12-09T02:24:41.962Z,100549.69
2022-12-09T02:34:56.040Z,100544.34
2022-12-09T02:45:01.256Z,100541.25
2022-12-09T02:55:10.220Z,100540.50
2022-12-09T03:05:19.637Z,100523.25
2022-12-09T03:15:29.008Z,100519.00
2022-12-09T03:25:35.562Z,100520.56
2022-12-09T03:35:44.149Z,100502.13
2022-12-09T03:45:48.025Z,100506.34
2022-12-09T03:55:59.453Z,100504.81
2022-12-09T04:06:02.967Z,100500.59
2022-12-09T04:16:07.853Z,100495.22
2022-12-09T04:26:14.881Z,100502.13
2022-12-09T04:36:21.743Z,100498.31
2022-12-09T04:46:26.985Z,100490.22
2022-12-09T04:56:32.575Z,100493.28
2022-12-09T05:06:35.927Z,100500.22
2022-12-09T05:16:40.643Z,100489.84
2022-12-09T05:26:44.009Z,100489.06
2022-12-09T05:36:48.673Z,100498.66
2022-12-09T05:46:52.171Z,100499.06
2022-12-09T05:56:57.444Z,100487.53
2022-12-09T06:07:01.111Z,100488.31
2022-12-09T06:17:06.079Z,100484.47
2022-12-09T06:27:09.256Z,100488.69
2022-12-09T06:37:16.016Z,100482.56
2022-12-09T06:47:19.245Z,100486.00
2022-12-09T06:57:25.028Z,100481.41
2022-12-09T07:07:28.276Z,100489.06
2022-12-09T07:17:33.237Z,100497.53
2022-12-09T07:27:36.233Z,100506.34
2022-12-09T07:37:40.712Z,100512.84
2022-12-09T07:47:43.985Z,100518.22
2022-12-09T07:57:48.644Z,100532.03
2022-12-09T08:07:51.899Z,100525.13
2022-12-09T08:17:57.289Z,100525.91
2022-12-09T08:28:01.274Z,100532.06
2022-12-09T08:38:06.031Z,100522.06
2022-12-09T08:48:10.515Z,100521.28
2022-12-09T08:58:15.860Z,100521.66
2022-12-09T09:08:19.839Z,100527.38
2022-12-09T09:18:26.380Z,100543.50
2022-12-09T09:28:31.742Z,100552.00
2022-12-09T09:38:36.737Z,100536.69
2022-12-09T09:48:40.018Z,100535.13
2022-12-09T09:58:52.680Z,100530.50
2022-12-09T10:08:59.546Z,100531.66
2022-12-09T10:19:09.683Z,100532.81
2022-12-09T10:29:18.150Z,100530.53
2022-12-09T10:39:24.152Z,100524.00
2022-12-09T10:49:27.394Z,100525.13
2022-12-09T10:59:33.409Z,100518.88
2022-12-09T11:09:38.982Z,100515.44
2022-12-09T11:19:47.071Z,100516.59
2022-12-09T11:30:06.939Z,100518.06
2022-12-09T11:40:17.870Z,100514.31
2022-12-09T11:50:24.080Z,100509.69
2022-12-09T12:00:35.315Z,100505.47
2022-12-09T12:10:43.054Z,100511.28
2022-12-09T12:21:15.138Z,100500.50
2022-12-09T12:31:29.066Z,100500.09
2022-12-09T12:41:42.829Z,100500.09
2022-12-09T12:51:54.565Z,100492.84
2022-12-09T13:02:03.523Z,100489.38
2022-12-09T13:12:12.813Z,100493.19
2022-12-09T13:22:23.012Z,100473.66
2022-12-09T13:32:53.986Z,100489.00
2022-12-09T13:43:10.990Z,100486.31
2022-12-09T13:53:27.768Z,100495.53
2022-12-09T14:03:36.182Z,100493.25
2022-12-09T14:13:40.741Z,100490.94
2022-12-09T14:24:37.253Z,100508.59
2022-12-09T14:34:44.172Z,100514.41
2022-12-09T14:44:56.624Z,100512.50
2022-12-09T14:55:03.150Z,100515.56
2022-12-09T15:05:18.164Z,100512.88
2022-12-09T15:15:25.044Z,100520.94
2022-12-09T15:25:29.826Z,100530.50
2022-12-09T15:35:34.803Z,100527.81
2022-12-09T15:45:46.196Z,100532.38
2022-12-09T15:55:52.918Z,100535.03
2022-12-09T16:06:00.481Z,100537.28
2022-12-09T16:16:25.411Z,100523.41
2022-12-09T16:26:32.622Z,100511.25
2022-12-09T16:36:35.584Z,100525.97
2022-12-09T16:46:41.517Z,100531.03
2022-12-09T16:56:44.614Z,100549.84
2022-12-09T17:06:49.079Z,100547.25
2022-12-09T17:16:52.182Z,100553.66
2022-12-09T17:26:59.327Z,100564.00
2022-12-09T17:37:02.355Z,100579.25
2022-12-09T17:47:06.798Z,100582.88
2022-12-09T17:57:09.762Z,100591.31
2022-12-09T18:07:14.100Z,100603.47
2022-12-09T18:17:17.265Z,100608.66
2022-12-09T18:27:21.940Z,100610.59
2022-12-09T18:37:25.863Z,100610.34
2022-12-09T18:47:30.147Z,100622.63
2022-12-09T18:57:33.186Z,100618.19
2022-12-09T19:07:37.581Z,100629.59
2022-12-09T19:17:42.645Z,100646.66
2022-12-09T19:27:47.033Z,100652.94
2022-12-09T19:37:50.040Z,100651.13
2022-12-09T19:47:54.451Z,100650.03
2022-12-09T19:57:57.557Z,100654.69
2022-12-09T20:08:01.940Z,100657.19
2022-12-09T20:18:05.278Z,100659.34
2022-12-09T20:28:09.824Z,100665.78
2022-12-09T20:38:12.582Z,100660.59
2022-12-09T20:48:17.128Z,100672.03
2022-12-09T20:58:19.862Z,100682.31
2022-12-09T21:08:29.833Z,100691.78
2022-12-09T21:18:35.302Z,100677.59
2022-12-09T21:28:40.580Z,100681.81
2022-12-09T21:38:43.965Z,100688.38
2022-12-09T21:48:52.410Z,100683.31
2022-12-09T21:58:57.909Z,100682.88
2022-12-09T22:09:03.408Z,100695.72
2022-12-09T22:19:08.361Z,100710.22
2022-12-09T22:29:15.181Z,100711.22
2022-12-09T22:39:19.986Z,100702.00
2022-12-09T22:49:24.345Z,100725.09
2022-12-09T22:59:27.301Z,100714.19
2022-12-09T23:09:31.629Z,100710.00
2022-12-09T23:19:35.107Z,100704.13
2022-12-09T23:29:39.556Z,100699.84
2022-12-09T23:39:42.815Z,100712.72
2022-12-09T23:49:47.099Z,100717.09
2022-12-09T23:59:50.338Z,100719.81
